MSC Sinfonia — H8XH — position and weather

sailwx.info

Track history (hours):
 
Tides and Currents Weather Stations Pressure Air Temp Water Temp Dewpoint Dewpoint Depression Visibility Wind Speed Wind Dir Waves Ship Positions

MSC Sinfonia

Last reported at 2017-Jul-22 16:31 UTC. Time now 2017-Jul-22 16:56 UTC.
Position N 45°22' E 012°32'.

Length 251 m; draft 6.8 m.

Type: Passenger vessel. MMSI: 356715971.

Date/timePositionNaut miles runAvg speedWind from/ knotsBaromVisibWave heightAir tempDewpointWater temp
2017-Jul-22 16:31N 45°22' E 012°32'713.6
2017-Jul-22 16:00N 45°26' E 012°24'3 5.6
2017-Jul-22 15:30N 45°26' E 012°20'1 2.5
2017-Jul-22 14:59N 45°26' E 012°18'0 0.0
2017-Jul-22 13:59N 45°26' E 012°18'0 0.0
2017-Jul-22 13:29N 45°26' E 012°18'0 0.0
2017-Jul-22 12:59N 45°26' E 012°18'0 0.0
2017-Jul-22 12:29N 45°26' E 012°18'0 0.0
2017-Jul-22 11:59N 45°26' E 012°18'0 0.0
2017-Jul-22 11:29N 45°26' E 012°18'0 0.0
2017-Jul-22 10:59N 45°26' E 012°18'0 0.0
2017-Jul-22 10:29N 45°26' E 012°18'0 0.0
2017-Jul-22 09:59N 45°26' E 012°18'0 0.0
2017-Jul-22 09:29N 45°26' E 012°18'0 0.0
2017-Jul-22 08:59N 45°26' E 012°18'0 0.0
2017-Jul-22 08:26N 45°26' E 012°18'0 0.0
2017-Jul-22 07:59N 45°26' E 012°18'0 0.0
2017-Jul-22 07:29N 45°26' E 012°18'0 0.0
2017-Jul-22 06:59N 45°26' E 012°18'0 0.0
2017-Jul-22 06:29N 45°26' E 012°18'0 0.0
2017-Jul-22 05:59N 45°26' E 012°18'0 0.0
2017-Jul-22 05:29N 45°26' E 012°18'0 0.5
2017-Jul-22 05:01N 45°26' E 012°19'3 5.7
2017-Jul-22 04:31N 45°26' E 012°23'4 8.3
2017-Jul-22 04:01N 45°24' E 012°28'4 8.7
2017-Jul-22 03:30N 45°22' E 012°34'5 9.1
2017-Jul-22 03:00N 45°20' E 012°39'5 9.5
2017-Jul-22 02:30N 45°17' E 012°45'4 9.1
2017-Jul-22 02:00N 45°14' E 012°49'5 9.8
2017-Jul-22 01:30N 45°09' E 012°52'611.6
2017-Jul-22 01:00N 45°04' E 012°55'611.5
2017-Jul-22 00:30N 44°58' E 012°57'611.3
2017-Jul-22 00:00N 44°53' E 012°59'611.3
2017-Jul-21 23:30N 44°47' E 013°01'611.5
2017-Jul-21 23:00N 44°42' E 013°04'611.6
2017-Jul-21 22:30N 44°36' E 013°06'611.7
2017-Jul-21 22:00N 44°31' E 013°09'611.7
2017-Jul-21 21:30N 44°25' E 013°11'611.6
2017-Jul-21 21:00N 44°20' E 013°14'612.2
2017-Jul-21 20:30N 44°15' E 013°20'613.1
2017-Jul-21 20:00N 44°11' E 013°27'712.9
2017-Jul-21 19:28N 44°07' E 013°34'613.0
2017-Jul-21 19:00N 44°03' E 013°41'713.1
2017-Jul-21 18:30N 43°59' E 013°48'611.3
2017-Jul-21 18:00N 43°54' E 013°50'2111.6
2017-Jul-21 16:14N 43°39' E 013°30'1 0.4
2017-Jul-21 12:19N 43°37' E 013°30'0 0.0
2017-Jul-21 11:58N 43°37' E 013°30'0 0.0
2017-Jul-21 11:25N 43°37' E 013°30'0 0.0
2017-Jul-21 10:55N 43°37' E 013°30'0 0.0
2017-Jul-21 10:22N 43°37' E 013°30'0 0.0
2017-Jul-21 09:58N 43°37' E 013°30'0 0.0
2017-Jul-21 07:43N 43°37' E 013°30'0 0.1
2017-Jul-21 07:25N 43°37' E 013°30'1 3.6
2017-Jul-21 07:00N 43°38' E 013°29'1513.9
2017-Jul-21 05:55N 43°40' E 013°50'717.2
2017-Jul-21 05:30N 43°37' E 013°59'1017.3
2017-Jul-21 04:55N 43°32' E 014°11'717.4
2017-Jul-21 04:30N 43°29' E 014°20'917.6
2017-Jul-21 03:58N 43°25' E 014°32'817.4
2017-Jul-21 03:31N 43°21' E 014°42'917.4
2017-Jul-21 03:00N 43°17' E 014°53'36811.9
2017-Jul-19 20:06N 38°34' E 020°04'219.2
2017-Jul-19 20:00N 38°33' E 020°05'23714.0
2017-Jul-19 03:06N 37°14' E 024°48'219.3
2017-Jul-19 03:00N 37°15' E 024°50'1019.6
2017-Jul-19 02:30N 37°21' E 024°60'1019.8
2017-Jul-19 02:00N 37°27' E 025°10'714.3
2017-Jul-19 01:30N 37°27' E 025°19'0 0.5
2017-Jul-19 01:00N 37°27' E 025°19'0 0.6
2017-Jul-19 00:30N 37°27' E 025°19'0 0.1
2017-Jul-18 23:58N 37°27' E 025°19'0 0.3
2017-Jul-18 23:30N 37°27' E 025°19'0 0.4
2017-Jul-18 22:58N 37°28' E 025°19'0 0.7
2017-Jul-18 22:29N 37°27' E 025°19'1 1.1
2017-Jul-18 21:58N 37°28' E 025°19'0 0.1
2017-Jul-18 21:28N 37°27' E 025°19'0 0.1
2017-Jul-18 20:55N 37°28' E 025°19'0 0.0
2017-Jul-18 20:28N 37°28' E 025°19'0 0.0
2017-Jul-18 19:58N 37°28' E 025°19'0 0.0
2017-Jul-18 19:28N 37°28' E 025°19'0 0.0
2017-Jul-18 18:58N 37°28' E 025°19'0 0.0
2017-Jul-18 18:28N 37°27' E 025°19'0 0.0
2017-Jul-18 17:58N 37°27' E 025°19'0 0.0
2017-Jul-18 17:28N 37°27' E 025°19'0 0.1
2017-Jul-18 16:59N 37°28' E 025°19'0 0.3
2017-Jul-18 16:30N 37°28' E 025°19'510.4
2017-Jul-18 16:01N 37°27' E 025°13'714.9
2017-Jul-18 15:30N 37°19' E 025°12'917.1
2017-Jul-18 15:00N 37°12' E 025°17'  
2017-Jul-15 22:22N 44°23' E 013°46'718.1
2017-Jul-15 22:00N 44°29' E 013°41'918.0
2017-Jul-15 21:30N 44°36' E 013°34'918.2
2017-Jul-15 21:00N 44°44' E 013°27'918.0
2017-Jul-15 20:30N 44°51' E 013°20'917.6
2017-Jul-15 20:00N 44°58' E 013°12'917.5
2017-Jul-15 19:30N 45°03' E 013°01'917.9
2017-Jul-15 19:00N 45°08' E 012°51'917.7
2017-Jul-15 18:30N 45°09' E 012°39'816.6
2017-Jul-15 18:00N 45°14' E 012°30'816.5
2017-Jul-15 17:30N 45°20' E 012°21'5 9.5
2017-Jul-15 17:00N 45°22' E 012°15'4 7.9
2017-Jul-15 16:30N 45°26' E 012°16'1 2.6
2017-Jul-15 16:00N 45°27' E 012°15'0 0.0
2017-Jul-15 15:30N 45°27' E 012°15'0 0.0
2017-Jul-15 15:00N 45°27' E 012°15'0 0.0
2017-Jul-15 13:57N 45°27' E 012°15'0 0.0
2017-Jul-15 13:30N 45°27' E 012°15'0 0.0
2017-Jul-15 12:57N 45°27' E 012°15'0 0.0
2017-Jul-15 12:27N 45°27' E 012°15'0 0.0
2017-Jul-15 12:00N 45°27' E 012°15'0 0.0
2017-Jul-15 11:30N 45°27' E 012°15'0 0.0
2017-Jul-15 11:00N 45°27' E 012°15'0 0.0
2017-Jul-15 10:27N 45°27' E 012°15'0 0.0
2017-Jul-15 09:54N 45°27' E 012°15'0 0.0
2017-Jul-15 09:30N 45°27' E 012°15'0 0.0
2017-Jul-15 09:00N 45°27' E 012°15'0 0.0
2017-Jul-15 08:30N 45°27' E 012°15'0 0.0
2017-Jul-15 08:00N 45°27' E 012°15'0 0.0
2017-Jul-15 07:30N 45°27' E 012°15'0 0.0
2017-Jul-15 07:00N 45°27' E 012°15'0 0.0
2017-Jul-15 06:30N 45°27' E 012°15'0 0.0
2017-Jul-15 06:00N 45°27' E 012°15'0 0.3
2017-Jul-15 05:30N 45°27' E 012°16'3 6.2
2017-Jul-15 05:00N 45°24' E 012°16'4 7.7
2017-Jul-15 04:31N 45°21' E 012°17'4 8.4
2017-Jul-15 04:01N 45°19' E 012°23'4 7.8
2017-Jul-15 03:31N 45°18' E 012°28'4 8.8
2017-Jul-15 03:00N 45°16' E 012°34'4 9.0
2017-Jul-15 02:30N 45°13' E 012°39'5 9.0
2017-Jul-15 02:00N 45°11' E 012°44'5 9.0
2017-Jul-15 01:30N 45°08' E 012°49'611.2
2017-Jul-15 01:00N 45°02' E 012°52'611.7
2017-Jul-15 00:30N 44°57' E 012°55'611.8
2017-Jul-15 00:00N 44°52' E 012°58'612.1
2017-Jul-14 23:30N 44°46' E 013°02'611.9
2017-Jul-14 23:00N 44°40' E 013°04'611.5
2017-Jul-14 22:30N 44°35' E 013°07'611.7
2017-Jul-14 22:00N 44°29' E 013°09'712.3
2017-Jul-14 21:25N 44°23' E 013°13'  
Track history (hours):
 
Tides and Currents Weather Stations Pressure Air Temp Water Temp Dewpoint Dewpoint Depression Visibility Wind Speed Wind Dir Waves Ship Positions

MSC Sinfonia

Last reported at 2017-Jul-22 16:31 UTC. Time now 2017-Jul-22 16:56 UTC.
Position N 45°22' E 012°32'.

Length 251 m; draft 6.8 m.

Type: Passenger vessel. MMSI: 356715971.

Date/timePositionNaut miles runAvg speedWind from/ knotsBaromVisibWave heightAir tempDewpointWater temp
2017-Jul-22 16:31N 45°22' E 012°32'713.6
2017-Jul-22 16:00N 45°26' E 012°24'3 5.6
2017-Jul-22 15:30N 45°26' E 012°20'1 2.5
2017-Jul-22 14:59N 45°26' E 012°18'0 0.0
2017-Jul-22 13:59N 45°26' E 012°18'0 0.0
2017-Jul-22 13:29N 45°26' E 012°18'0 0.0
2017-Jul-22 12:59N 45°26' E 012°18'0 0.0
2017-Jul-22 12:29N 45°26' E 012°18'0 0.0
2017-Jul-22 11:59N 45°26' E 012°18'0 0.0
2017-Jul-22 11:29N 45°26' E 012°18'0 0.0
2017-Jul-22 10:59N 45°26' E 012°18'0 0.0
2017-Jul-22 10:29N 45°26' E 012°18'0 0.0
2017-Jul-22 09:59N 45°26' E 012°18'0 0.0
2017-Jul-22 09:29N 45°26' E 012°18'0 0.0
2017-Jul-22 08:59N 45°26' E 012°18'0 0.0
2017-Jul-22 08:26N 45°26' E 012°18'0 0.0
2017-Jul-22 07:59N 45°26' E 012°18'0 0.0
2017-Jul-22 07:29N 45°26' E 012°18'0 0.0
2017-Jul-22 06:59N 45°26' E 012°18'0 0.0
2017-Jul-22 06:29N 45°26' E 012°18'0 0.0
2017-Jul-22 05:59N 45°26' E 012°18'0 0.0
2017-Jul-22 05:29N 45°26' E 012°18'0 0.5
2017-Jul-22 05:01N 45°26' E 012°19'3 5.7
2017-Jul-22 04:31N 45°26' E 012°23'4 8.3
2017-Jul-22 04:01N 45°24' E 012°28'4 8.7
2017-Jul-22 03:30N 45°22' E 012°34'5 9.1
2017-Jul-22 03:00N 45°20' E 012°39'5 9.5
2017-Jul-22 02:30N 45°17' E 012°45'4 9.1
2017-Jul-22 02:00N 45°14' E 012°49'5 9.8
2017-Jul-22 01:30N 45°09' E 012°52'611.6
2017-Jul-22 01:00N 45°04' E 012°55'611.5
2017-Jul-22 00:30N 44°58' E 012°57'611.3
2017-Jul-22 00:00N 44°53' E 012°59'611.3
2017-Jul-21 23:30N 44°47' E 013°01'611.5
2017-Jul-21 23:00N 44°42' E 013°04'611.6
2017-Jul-21 22:30N 44°36' E 013°06'611.7
2017-Jul-21 22:00N 44°31' E 013°09'611.7
2017-Jul-21 21:30N 44°25' E 013°11'611.6
2017-Jul-21 21:00N 44°20' E 013°14'612.2
2017-Jul-21 20:30N 44°15' E 013°20'613.1
2017-Jul-21 20:00N 44°11' E 013°27'712.9
2017-Jul-21 19:28N 44°07' E 013°34'613.0
2017-Jul-21 19:00N 44°03' E 013°41'713.1
2017-Jul-21 18:30N 43°59' E 013°48'611.3
2017-Jul-21 18:00N 43°54' E 013°50'2111.6
2017-Jul-21 16:14N 43°39' E 013°30'1 0.4
2017-Jul-21 12:19N 43°37' E 013°30'0 0.0
2017-Jul-21 11:58N 43°37' E 013°30'0 0.0
2017-Jul-21 11:25N 43°37' E 013°30'0 0.0
2017-Jul-21 10:55N 43°37' E 013°30'0 0.0
2017-Jul-21 10:22N 43°37' E 013°30'0 0.0
2017-Jul-21 09:58N 43°37' E 013°30'0 0.0
2017-Jul-21 07:43N 43°37' E 013°30'0 0.1
2017-Jul-21 07:25N 43°37' E 013°30'1 3.6
2017-Jul-21 07:00N 43°38' E 013°29'1513.9
2017-Jul-21 05:55N 43°40' E 013°50'717.2
2017-Jul-21 05:30N 43°37' E 013°59'1017.3
2017-Jul-21 04:55N 43°32' E 014°11'717.4
2017-Jul-21 04:30N 43°29' E 014°20'917.6
2017-Jul-21 03:58N 43°25' E 014°32'817.4
2017-Jul-21 03:31N 43°21' E 014°42'917.4
2017-Jul-21 03:00N 43°17' E 014°53'36811.9
2017-Jul-19 20:06N 38°34' E 020°04'219.2
2017-Jul-19 20:00N 38°33' E 020°05'23714.0
2017-Jul-19 03:06N 37°14' E 024°48'219.3
2017-Jul-19 03:00N 37°15' E 024°50'1019.6
2017-Jul-19 02:30N 37°21' E 024°60'1019.8
2017-Jul-19 02:00N 37°27' E 025°10'714.3
2017-Jul-19 01:30N 37°27' E 025°19'0 0.5
2017-Jul-19 01:00N 37°27' E 025°19'0 0.6
2017-Jul-19 00:30N 37°27' E 025°19'0 0.1
2017-Jul-18 23:58N 37°27' E 025°19'0 0.3
2017-Jul-18 23:30N 37°27' E 025°19'0 0.4
2017-Jul-18 22:58N 37°28' E 025°19'0 0.7
2017-Jul-18 22:29N 37°27' E 025°19'1 1.1
2017-Jul-18 21:58N 37°28' E 025°19'0 0.1
2017-Jul-18 21:28N 37°27' E 025°19'0 0.1
2017-Jul-18 20:55N 37°28' E 025°19'0 0.0
2017-Jul-18 20:28N 37°28' E 025°19'0 0.0
2017-Jul-18 19:58N 37°28' E 025°19'0 0.0
2017-Jul-18 19:28N 37°28' E 025°19'0 0.0
2017-Jul-18 18:58N 37°28' E 025°19'0 0.0
2017-Jul-18 18:28N 37°27' E 025°19'0 0.0
2017-Jul-18 17:58N 37°27' E 025°19'0 0.0
2017-Jul-18 17:28N 37°27' E 025°19'0 0.1
2017-Jul-18 16:59N 37°28' E 025°19'0 0.3
2017-Jul-18 16:30N 37°28' E 025°19'510.4
2017-Jul-18 16:01N 37°27' E 025°13'714.9
2017-Jul-18 15:30N 37°19' E 025°12'917.1
2017-Jul-18 15:00N 37°12' E 025°17'  
2017-Jul-15 22:22N 44°23' E 013°46'718.1
2017-Jul-15 22:00N 44°29' E 013°41'918.0
2017-Jul-15 21:30N 44°36' E 013°34'918.2
2017-Jul-15 21:00N 44°44' E 013°27'918.0
2017-Jul-15 20:30N 44°51' E 013°20'917.6
2017-Jul-15 20:00N 44°58' E 013°12'917.5
2017-Jul-15 19:30N 45°03' E 013°01'917.9
2017-Jul-15 19:00N 45°08' E 012°51'917.7
2017-Jul-15 18:30N 45°09' E 012°39'816.6
2017-Jul-15 18:00N 45°14' E 012°30'816.5
2017-Jul-15 17:30N 45°20' E 012°21'5 9.5
2017-Jul-15 17:00N 45°22' E 012°15'4 7.9
2017-Jul-15 16:30N 45°26' E 012°16'1 2.6
2017-Jul-15 16:00N 45°27' E 012°15'0 0.0
2017-Jul-15 15:30N 45°27' E 012°15'0 0.0
2017-Jul-15 15:00N 45°27' E 012°15'0 0.0
2017-Jul-15 13:57N 45°27' E 012°15'0 0.0
2017-Jul-15 13:30N 45°27' E 012°15'0 0.0
2017-Jul-15 12:57N 45°27' E 012°15'0 0.0
2017-Jul-15 12:27N 45°27' E 012°15'0 0.0
2017-Jul-15 12:00N 45°27' E 012°15'0 0.0
2017-Jul-15 11:30N 45°27' E 012°15'0 0.0
2017-Jul-15 11:00N 45°27' E 012°15'0 0.0
2017-Jul-15 10:27N 45°27' E 012°15'0 0.0
2017-Jul-15 09:54N 45°27' E 012°15'0 0.0
2017-Jul-15 09:30N 45°27' E 012°15'0 0.0
2017-Jul-15 09:00N 45°27' E 012°15'0 0.0
2017-Jul-15 08:30N 45°27' E 012°15'0 0.0
2017-Jul-15 08:00N 45°27' E 012°15'0 0.0
2017-Jul-15 07:30N 45°27' E 012°15'0 0.0
2017-Jul-15 07:00N 45°27' E 012°15'0 0.0
2017-Jul-15 06:30N 45°27' E 012°15'0 0.0
2017-Jul-15 06:00N 45°27' E 012°15'0 0.3
2017-Jul-15 05:30N 45°27' E 012°16'3 6.2
2017-Jul-15 05:00N 45°24' E 012°16'4 7.7
2017-Jul-15 04:31N 45°21' E 012°17'4 8.4
2017-Jul-15 04:01N 45°19' E 012°23'4 7.8
2017-Jul-15 03:31N 45°18' E 012°28'4 8.8
2017-Jul-15 03:00N 45°16' E 012°34'4 9.0
2017-Jul-15 02:30N 45°13' E 012°39'5 9.0
2017-Jul-15 02:00N 45°11' E 012°44'5 9.0
2017-Jul-15 01:30N 45°08' E 012°49'611.2
2017-Jul-15 01:00N 45°02' E 012°52'611.7
2017-Jul-15 00:30N 44°57' E 012°55'611.8
2017-Jul-15 00:00N 44°52' E 012°58'612.1
2017-Jul-14 23:30N 44°46' E 013°02'611.9
2017-Jul-14 23:00N 44°40' E 013°04'611.5
2017-Jul-14 22:30N 44°35' E 013°07'611.7
2017-Jul-14 22:00N 44°29' E 013°09'712.3
2017-Jul-14 21:25N 44°23' E 013°13'  

Dump ship's entire track history